Time;durP1;ratioP1;P1;durP2;ratioP2;P2;SDS_P1;SDS_P2;PMS_P1;PMS_P2;Temp;Humidity;BMP_temperature;BMP_pressure;BME280_temperature;BME280_humidity;BME280_pressure;Samples;Min_cycle;Max_cycle;Signal;HPM_P1;HPM_P2
2022/12/01 00:00:36;;;;;;;;;;;;;;;2.77;72.44;98578.44;4993125;28;19930;-72
2022/12/01 00:03:06;;;;;;;;;;;;;;;2.71;72.49;98574.88;4998925;28;19940;-73
2022/12/01 00:05:34;;;;;;;;;;;;;;;2.72;72.30;98575.72;4978663;28;20437;-72
2022/12/01 00:08:05;;;;;;;;;;;;;;;2.73;72.26;98575.47;5005779;28;19980;-72
2022/12/01 00:10:33;;;;;;;;;;;;;;;2.71;72.24;98566.03;5007154;28;20374;-72
2022/12/01 00:13:03;;;;;;;;;;;;;;;2.70;72.57;98573.25;4999739;28;19971;-72
2022/12/01 00:15:33;;;;;;;;;;;;;;;2.76;72.29;98569.59;5004765;28;19934;-72
2022/12/01 00:18:01;;;;;;;;;;;;;;;2.73;72.54;98566.59;5012216;28;19948;-72
2022/12/01 00:20:30;;;;;;;;;;;;;;;2.70;72.83;98569.75;5010103;28;19929;-72
2022/12/01 00:22:58;;;;;;;;;;;;;;;2.73;73.29;98564.72;5010753;28;19925;-72
2022/12/01 00:25:26;;;;;;;;;;;;;;;2.84;72.52;98565.72;4994726;28;19932;-72
2022/12/01 00:27:54;;;;;;;;;;;;;;;2.76;72.59;98571.47;4995843;28;19933;-72
2022/12/01 00:30:22;;;;;;;;;;;;;;;2.73;72.81;98574.66;4995255;28;19926;-73
2022/12/01 00:32:51;;;;;;;;;;;;;;;2.78;72.57;98569.38;4976523;28;19933;-73
2022/12/01 00:35:19;;;;;;;;;;;;;;;2.75;72.64;98569.84;5012512;28;19929;-72
2022/12/01 00:37:49;;;;;;;;;;;;;;;2.72;73.21;98573.84;4997857;28;19926;-72
2022/12/01 00:40:42;;;;;;;;;;;;;;;2.76;73.02;98574.97;4998806;28;19925;-72
2022/12/01 00:43:10;;;;;;;;;;;;;;;2.76;72.92;98572.28;4981520;28;19932;-72
2022/12/01 00:45:42;;;;;;;;;;;;;;;2.72;73.16;98578.41;4993439;28;20389;-72
2022/12/01 00:48:14;;;;;;;;;;;;;;;2.81;73.08;98582.28;5010469;28;20360;-72
2022/12/01 00:50:42;;;;;;;;;;;;;;;2.80;72.65;98581.47;4992669;28;19929;-73
2022/12/01 00:53:11;;;;;;;;;;;;;;;2.76;72.87;98580.31;4993587;28;20543;-72
2022/12/01 00:55:40;;;;;;;;;;;;;;;2.82;73.22;98582.06;5010518;28;19969;-72
2022/12/01 00:58:08;;;;;;;;;;;;;;;2.79;73.38;98581.72;4994412;28;19929;-72
2022/12/01 01:00:37;;;;;;;;;;;;;;;2.82;73.41;98583.91;5011857;28;19925;-73
2022/12/01 01:03:05;;;;;;;;;;;;;;;2.78;72.91;98582.78;5000670;28;19936;-72
2022/12/01 01:05:35;;;;;;;;;;;;;;;2.80;72.77;98586.03;5005538;28;19933;-72
2022/12/01 01:08:06;;;;;;;;;;;;;;;2.77;72.94;98586.50;5019820;28;19930;-73
2022/12/01 01:10:37;;;;;;;;;;;;;;;2.83;72.90;98586.38;5004702;28;19925;-72
2022/12/01 01:13:05;;;;;;;;;;;;;;;2.79;73.13;98589.78;4997803;28;19936;-72
2022/12/01 01:15:33;;;;;;;;;;;;;;;2.82;72.89;98583.91;5012800;28;19926;-72
2022/12/01 01:18:01;;;;;;;;;;;;;;;2.79;72.76;98587.09;5009344;28;19925;-73
2022/12/01 01:20:29;;;;;;;;;;;;;;;2.80;73.17;98586.84;5011820;28;19930;-72
2022/12/01 01:22:57;;;;;;;;;;;;;;;2.93;72.92;98588.41;5010498;28;19937;-73
2022/12/01 01:25:28;;;;;;;;;;;;;;;2.82;72.83;98579.38;5008438;28;20042;-72
2022/12/01 01:27:57;;;;;;;;;;;;;;;2.85;73.00;98589.59;5009638;28;19955;-73
2022/12/01 01:30:27;;;;;;;;;;;;;;;2.79;72.90;98584.41;5012333;28;19932;-73
2022/12/01 01:32:56;;;;;;;;;;;;;;;2.78;73.57;98583.59;4994401;28;19967;-73
2022/12/01 01:35:24;;;;;;;;;;;;;;;2.82;73.26;98583.91;5016519;28;19982;-73
2022/12/01 01:37:53;;;;;;;;;;;;;;;2.84;73.76;98589.84;5012205;28;19926;-72
2022/12/01 01:40:46;;;;;;;;;;;;;;;2.84;72.96;98592.53;4993545;28;19933;-73
2022/12/01 01:43:18;;;;;;;;;;;;;;;2.82;73.75;98589.28;4996906;28;20369;-73
2022/12/01 01:45:46;;;;;;;;;;;;;;;2.79;73.65;98584.41;5003843;28;19933;-73
2022/12/01 01:48:17;;;;;;;;;;;;;;;2.82;73.79;98586.59;4997644;28;19936;-73
2022/12/01 01:50:45;;;;;;;;;;;;;;;2.88;73.63;98593.69;5008591;28;19933;-73
2022/12/01 01:53:13;;;;;;;;;;;;;;;2.77;73.51;98591.88;5003728;28;20464;-73
2022/12/01 01:55:42;;;;;;;;;;;;;;;2.77;74.16;98598.06;5010906;28;19953;-72
2022/12/01 01:58:10;;;;;;;;;;;;;;;2.84;73.60;98595.22;5010577;28;19936;-73
2022/12/01 02:00:41;;;;;;;;;;;;;;;2.80;73.97;98592.22;4999405;28;19935;-72
2022/12/01 02:03:33;;;;;;;;;;;;;;;2.86;74.04;98590.41;4995680;28;20276;-72
2022/12/01 02:06:02;;;;;;;;;;;;;;;2.87;74.00;98595.53;4997930;28;19932;-72
2022/12/01 02:08:33;;;;;;;;;;;;;;;2.91;73.38;98593.19;4997612;28;19960;-72
2022/12/01 02:11:33;;;;;;;;;;;;;;;2.84;73.53;98589.84;4990854;28;19967;-73
2022/12/01 02:14:04;;;;;;;;;;;;;;;2.83;73.75;98598.97;4997290;28;20397;-73
2022/12/01 02:16:35;;;;;;;;;;;;;;;2.82;74.11;98591.94;4995281;28;19947;-73
2022/12/01 02:19:05;;;;;;;;;;;;;;;2.88;74.52;98591.00;4976103;28;20433;-72
2022/12/01 02:21:37;;;;;;;;;;;;;;;2.88;74.35;98588.31;4993847;28;19940;-73
2022/12/01 02:24:24;;;;;;;;;;;;;;;2.88;73.74;98588.31;5003276;28;19926;-73
2022/12/01 02:26:59;;;;;;;;;;;;;;;2.80;74.05;98586.03;5003247;28;19980;-73
2022/12/01 02:35:33;;;;;;;;;;;;;;;2.89;73.80;98580.00;5003852;28;19947;-72
2022/12/01 02:38:09;;;;;;;;;;;;;;;2.88;74.41;98585.63;4995996;28;20483;-73
2022/12/01 02:40:39;;;;;;;;;;;;;;;2.83;74.58;98580.19;5019208;28;20338;-72
2022/12/01 02:43:09;;;;;;;;;;;;;;;2.87;74.33;98575.94;5011039;28;19930;-73
2022/12/01 02:45:39;;;;;;;;;;;;;;;2.87;74.52;98582.09;5011154;28;20046;-73
2022/12/01 02:48:10;;;;;;;;;;;;;;;2.92;74.07;98578.69;5010617;28;19960;-73
2022/12/01 02:50:39;;;;;;;;;;;;;;;2.88;74.57;98572.22;5011749;28;19940;-73
2022/12/01 02:53:07;;;;;;;;;;;;;;;2.93;74.88;98577.66;4996741;28;19944;-73
2022/12/01 02:55:39;;;;;;;;;;;;;;;2.92;74.63;98576.00;5011172;28;19925;-73
2022/12/01 02:58:12;;;;;;;;;;;;;;;2.90;74.61;98567.41;5011209;28;19970;-73
2022/12/01 03:00:41;;;;;;;;;;;;;;;2.91;74.86;98571.72;4995813;28;19943;-73
2022/12/01 03:03:25;;;;;;;;;;;;;;;2.92;74.55;98562.59;4990606;28;19953;-72
2022/12/01 03:05:54;;;;;;;;;;;;;;;2.97;74.67;98565.34;5007007;28;19959;-73
2022/12/01 03:08:22;;;;;;;;;;;;;;;2.96;74.66;98563.72;4992106;28;19940;-73
2022/12/01 03:10:52;;;;;;;;;;;;;;;2.97;74.51;98569.91;4996151;28;19983;-73
2022/12/01 03:13:46;;;;;;;;;;;;;;;2.96;74.66;98563.72;4999338;28;19964;-73
2022/12/01 03:16:14;;;;;;;;;;;;;;;2.98;74.55;98571.53;5002525;28;20010;-73
2022/12/01 03:18:44;;;;;;;;;;;;;;;2.93;74.99;98566.09;5011374;28;19929;-73
2022/12/01 03:21:13;;;;;;;;;;;;;;;2.95;74.65;98564.00;4992712;28;20031;-73
2022/12/01 03:23:41;;;;;;;;;;;;;;;2.91;74.80;98555.59;5007435;28;19955;-73
2022/12/01 03:26:09;;;;;;;;;;;;;;;2.95;74.97;98556.75;4987455;28;19932;-72
2022/12/01 03:31:57;;;;;;;;;;;;;;;2.98;75.14;98558.91;5014831;28;20046;-73
2022/12/01 03:34:29;;;;;;;;;;;;;;;2.98;74.81;98550.88;5017631;28;19942;-73
2022/12/01 03:37:24;;;;;;;;;;;;;;;3.02;74.70;98561.94;5017736;28;19933;-73
2022/12/01 03:39:55;;;;;;;;;;;;;;;2.97;75.08;98554.63;5004074;28;19979;-73
2022/12/01 03:42:28;;;;;;;;;;;;;;;2.99;74.94;98557.88;5017390;28;19925;-73
2022/12/01 03:45:22;;;;;;;;;;;;;;;2.93;75.21;98564.25;5017736;28;20030;-73
2022/12/01 03:48:14;;;;;;;;;;;;;;;2.95;75.31;98575.53;4998230;28;19995;-73
2022/12/01 03:50:46;;;;;;;;;;;;;;;2.95;74.95;98562.13;4995720;28;19953;-73
2022/12/01 03:53:18;;;;;;;;;;;;;;;2.97;75.17;98561.84;5007336;28;20393;-73
2022/12/01 03:55:46;;;;;;;;;;;;;;;2.95;75.65;98561.31;5012078;28;19966;-73
2022/12/01 03:58:16;;;;;;;;;;;;;;;2.96;75.66;98561.06;5009947;28;20363;-73
2022/12/01 04:00:48;;;;;;;;;;;;;;;2.94;75.93;98560.50;4996593;28;19948;-73
2022/12/01 04:03:17;;;;;;;;;;;;;;;2.98;75.62;98556.22;4993219;28;19926;-73
2022/12/01 04:05:47;;;;;;;;;;;;;;;3.00;75.71;98554.13;4998278;28;19925;-73
2022/12/01 04:08:15;;;;;;;;;;;;;;;2.94;75.48;98557.81;4984623;28;20006;-73
2022/12/01 04:10:43;;;;;;;;;;;;;;;3.01;76.05;98561.13;4989320;28;19930;-73
2022/12/01 04:13:15;;;;;;;;;;;;;;;3.04;75.64;98559.84;5008497;28;19955;-73
2022/12/01 04:16:07;;;;;;;;;;;;;;;3.07;75.44;98557.44;5005523;28;20023;-73
2022/12/01 04:18:36;;;;;;;;;;;;;;;2.98;75.12;98553.56;5007053;28;19960;-73
2022/12/01 04:21:05;;;;;;;;;;;;;;;2.91;75.04;98558.28;5001268;28;19947;-73
2022/12/01 04:26:44;;;;;;;;;;;;;;;2.88;75.87;98561.47;5001279;28;20385;-73
2022/12/01 04:29:15;;;;;;;;;;;;;;;2.88;75.70;98559.59;5015373;28;19955;-73
2022/12/01 04:31:44;;;;;;;;;;;;;;;2.93;76.04;98555.34;5010197;28;20442;-73
2022/12/01 04:34:12;;;;;;;;;;;;;;;2.91;75.69;98560.16;4997419;28;19926;-73
2022/12/01 04:36:42;;;;;;;;;;;;;;;2.93;75.67;98558.88;5008343;28;19925;-72
2022/12/01 04:39:11;;;;;;;;;;;;;;;2.92;75.65;98553.72;5003706;28;19926;-73
2022/12/01 04:41:40;;;;;;;;;;;;;;;2.87;76.00;98554.47;4999083;28;19925;-73
2022/12/01 04:44:09;;;;;;;;;;;;;;;2.92;76.03;98553.72;5012802;28;19983;-73
2022/12/01 04:46:40;;;;;;;;;;;;;;;2.94;76.24;98544.38;5001053;28;19976;-73
2022/12/01 04:49:08;;;;;;;;;;;;;;;2.91;76.28;98547.56;5007461;28;19926;-72
2022/12/01 04:51:36;;;;;;;;;;;;;;;2.88;76.49;98546.19;5007988;28;19925;-72
2022/12/01 04:54:05;;;;;;;;;;;;;;;2.87;76.36;98560.63;5009613;28;19940;-73
2022/12/01 04:56:34;;;;;;;;;;;;;;;2.89;76.45;98555.84;5009266;28;19937;-73
2022/12/01 04:59:02;;;;;;;;;;;;;;;2.89;76.75;98557.72;5003642;28;20004;-73
2022/12/01 05:01:30;;;;;;;;;;;;;;;2.92;76.22;98559.09;5011011;28;19960;-73
2022/12/01 05:03:58;;;;;;;;;;;;;;;2.92;76.40;98559.91;5011104;28;19933;-73
2022/12/01 05:06:28;;;;;;;;;;;;;;;2.90;76.39;98570.09;4988145;28;19926;-73
2022/12/01 05:08:56;;;;;;;;;;;;;;;2.95;76.31;98564.00;5001236;28;19988;-73
2022/12/01 05:11:27;;;;;;;;;;;;;;;2.95;76.42;98566.66;4986806;28;19944;-73
2022/12/01 05:14:20;;;;;;;;;;;;;;;2.98;76.47;98558.91;5000032;28;19952;-73
2022/12/01 05:16:48;;;;;;;;;;;;;;;3.00;76.42;98564.06;5006144;28;19925;-72
2022/12/01 05:22:02;;;;;;;;;;;;;;;3.04;76.27;98557.97;5008604;28;19926;-73
2022/12/01 05:24:30;;;;;;;;;;;;;;;3.01;76.44;98558.44;5019392;28;19987;-72
2022/12/01 05:27:24;;;;;;;;;;;;;;;3.01;76.40;98555.75;5011911;28;19956;-73
2022/12/01 05:29:55;;;;;;;;;;;;;;;2.96;76.47;98544.94;5006702;28;19960;-72
2022/12/01 05:32:23;;;;;;;;;;;;;;;2.97;76.85;98538.50;5011986;28;20397;-73
2022/12/01 05:34:56;;;;;;;;;;;;;;;2.95;76.79;98540.63;5013930;28;20412;-72
2022/12/01 05:37:25;;;;;;;;;;;;;;;2.98;76.95;98550.88;5003766;28;19960;-73
2022/12/01 05:39:53;;;;;;;;;;;;;;;2.93;76.64;98547.28;5002377;28;19948;-72
2022/12/01 05:42:21;;;;;;;;;;;;;;;2.89;76.68;98547.00;5005134;28;19937;-73
2022/12/01 05:44:50;;;;;;;;;;;;;;;2.90;76.96;98551.31;5007367;28;19967;-72
2022/12/01 05:47:19;;;;;;;;;;;;;;;2.94;76.77;98554.31;4993899;28;20396;-72
2022/12/01 05:49:47;;;;;;;;;;;;;;;2.91;77.06;98544.06;4992453;28;20504;-72
2022/12/01 05:52:15;;;;;;;;;;;;;;;2.93;77.03;98548.13;5009485;28;20386;-72
2022/12/01 05:54:44;;;;;;;;;;;;;;;2.93;76.77;98542.78;5009026;28;19936;-72
2022/12/01 05:57:12;;;;;;;;;;;;;;;2.95;77.09;98550.56;5010810;28;19947;-72
2022/12/01 05:59:40;;;;;;;;;;;;;;;2.96;76.99;98553.00;4996391;28;20027;-72
2022/12/01 06:02:08;;;;;;;;;;;;;;;2.90;76.65;98548.63;4992193;28;19925;-72
2022/12/01 06:04:40;;;;;;;;;;;;;;;2.81;77.06;98545.53;5010370;28;19971;-72
2022/12/01 06:07:08;;;;;;;;;;;;;;;2.79;76.87;98541.47;4989226;28;19959;-72
2022/12/01 06:09:36;;;;;;;;;;;;;;;2.77;77.16;98544.41;5001025;28;19930;-72
2022/12/01 06:12:05;;;;;;;;;;;;;;;2.78;77.19;98547.91;4999235;28;20291;-72
2022/12/01 06:14:33;;;;;;;;;;;;;;;2.81;77.16;98544.72;5003049;28;20345;-73
2022/12/01 06:17:01;;;;;;;;;;;;;;;2.84;76.92;98545.03;5002417;28;19933;-72
2022/12/01 06:19:30;;;;;;;;;;;;;;;2.86;77.17;98547.47;5006970;28;20011;-72
2022/12/01 06:21:59;;;;;;;;;;;;;;;2.86;76.83;98552.84;5007374;28;19933;-72
2022/12/01 06:24:27;;;;;;;;;;;;;;;2.88;76.92;98554.25;5003459;28;19944;-73
2022/12/01 06:26:55;;;;;;;;;;;;;;;2.94;76.95;98554.31;5006124;28;20336;-72
2022/12/01 06:29:23;;;;;;;;;;;;;;;2.96;77.19;98560.25;5006252;28;20004;-73
2022/12/01 06:31:52;;;;;;;;;;;;;;;2.99;76.65;98562.44;5004440;28;19936;-72
2022/12/01 06:34:21;;;;;;;;;;;;;;;2.96;76.41;98562.94;5008484;28;19959;-73
2022/12/01 06:36:50;;;;;;;;;;;;;;;2.94;76.13;98563.19;5008678;28;19929;-73
2022/12/01 06:39:20;;;;;;;;;;;;;;;2.95;76.17;98567.47;5003193;28;19951;-73
2022/12/01 06:41:48;;;;;;;;;;;;;;;3.01;76.55;98563.81;4989406;28;19943;-72
2022/12/01 06:44:18;;;;;;;;;;;;;;;3.04;76.43;98563.34;4991600;28;19949;-73
2022/12/01 06:46:51;;;;;;;;;;;;;;;3.04;76.54;98568.69;5008331;28;20468;-73
2022/12/01 06:49:19;;;;;;;;;;;;;;;3.02;76.42;98572.66;4982624;28;19930;-73
2022/12/01 06:51:50;;;;;;;;;;;;;;;2.99;76.08;98576.69;4987542;28;19925;-73
2022/12/01 06:54:18;;;;;;;;;;;;;;;2.99;76.42;98573.19;4996331;28;19926;-73
2022/12/01 06:56:47;;;;;;;;;;;;;;;2.97;76.37;98570.72;5010480;28;20364;-73
2022/12/01 06:59:15;;;;;;;;;;;;;;;2.94;76.50;98562.38;5008420;28;19960;-72
2022/12/01 07:01:49;;;;;;;;;;;;;;;2.99;76.20;98571.31;4996166;28;19972;-73
2022/12/01 07:04:17;;;;;;;;;;;;;;;3.01;76.15;98571.88;5014174;28;20023;-73
2022/12/01 07:06:46;;;;;;;;;;;;;;;2.98;76.35;98572.34;5013406;28;19955;-73
2022/12/01 07:09:14;;;;;;;;;;;;;;;2.99;76.85;98573.19;5007353;28;19934;-73
2022/12/01 07:11:42;;;;;;;;;;;;;;;3.00;76.42;98577.47;4996004;28;19999;-73
2022/12/01 07:14:14;;;;;;;;;;;;;;;2.99;75.95;98581.22;4993204;28;19959;-73
2022/12/01 07:16:42;;;;;;;;;;;;;;;2.97;76.27;98573.41;5008269;28;20325;-72
2022/12/01 07:19:11;;;;;;;;;;;;;;;2.97;76.16;98573.41;4993947;28;19944;-73
2022/12/01 07:22:04;;;;;;;;;;;;;;;2.93;76.12;98580.34;5001617;28;19975;-73
2022/12/01 07:24:59;;;;;;;;;;;;;;;2.94;76.36;98583.84;5012213;28;19947;-73
2022/12/01 07:27:29;;;;;;;;;;;;;;;2.92;76.47;98588.63;5002557;28;19936;-81
2022/12/01 07:29:59;;;;;;;;;;;;;;;2.97;76.55;98581.47;5028958;28;19973;-80
2022/12/01 07:32:27;;;;;;;;;;;;;;;3.07;76.62;98592.34;5005142;28;19936;-81
2022/12/01 07:34:58;;;;;;;;;;;;;;;3.08;76.53;98593.97;5010216;28;19952;-81
2022/12/01 07:37:27;;;;;;;;;;;;;;;3.11;75.92;98596.19;5022377;28;19956;-81
2022/12/01 07:39:55;;;;;;;;;;;;;;;3.11;76.00;98593.50;5025137;28;19925;-82
2022/12/01 07:42:25;;;;;;;;;;;;;;;3.10;75.77;98589.19;5007066;28;20028;-82
2022/12/01 07:47:54;;;;;;;;;;;;;;;3.09;76.05;98590.25;5025780;28;19935;-81
2022/12/01 07:50:22;;;;;;;;;;;;;;;3.15;75.72;98594.63;5004156;28;20431;-78
2022/12/01 07:52:50;;;;;;;;;;;;;;;3.18;75.64;98604.06;4997132;28;20292;-81
2022/12/01 07:55:18;;;;;;;;;;;;;;;3.18;75.52;98596.00;5018650;28;19963;-81
2022/12/01 07:57:47;;;;;;;;;;;;;;;3.22;75.62;98596.31;5026160;28;19994;-80
2022/12/01 08:00:15;;;;;;;;;;;;;;;3.26;75.25;98595.59;5022442;28;19963;-81
2022/12/01 08:02:44;;;;;;;;;;;;;;;3.26;75.46;98595.59;4997197;28;19957;-81
2022/12/01 08:05:13;;;;;;;;;;;;;;;3.28;75.36;98590.78;5021581;28;19929;-81
2022/12/01 08:08:07;;;;;;;;;;;;;;;3.28;74.94;98592.66;5012865;28;19931;-80
2022/12/01 08:10:36;;;;;;;;;;;;;;;3.31;75.27;98594.84;5017629;28;19926;-80
2022/12/01 08:13:04;;;;;;;;;;;;;;;3.28;75.62;98593.47;5019373;28;19925;-80
2022/12/01 08:15:32;;;;;;;;;;;;;;;3.28;75.04;98589.97;5012684;28;19940;-81
2022/12/01 08:18:01;;;;;;;;;;;;;;;3.27;75.57;98593.72;5025294;28;20348;-79
2022/12/01 08:20:58;;;;;;;;;;;;;;;3.29;75.37;98578.97;5032661;28;19963;-81
2022/12/01 08:23:27;;;;;;;;;;;;;;;3.33;75.24;98592.72;5022075;28;19960;-81
2022/12/01 08:25:56;;;;;;;;;;;;;;;3.32;75.55;98586.53;5028210;28;19953;-80
2022/12/01 08:31:19;;;;;;;;;;;;;;;3.36;75.27;98589.56;5003862;28;19972;-80
2022/12/01 08:34:12;;;;;;;;;;;;;;;3.35;75.16;98595.97;5016889;28;19932;-80
2022/12/01 08:36:42;;;;;;;;;;;;;;;3.36;75.30;98595.75;5020829;28;20016;-80
2022/12/01 08:39:11;;;;;;;;;;;;;;;3.41;74.62;98587.75;5014981;28;19930;-80
2022/12/01 08:41:39;;;;;;;;;;;;;;;3.43;75.28;98598.25;5002974;28;19932;-80
2022/12/01 08:44:09;;;;;;;;;;;;;;;3.43;75.10;98590.19;5017388;28;20023;-79
2022/12/01 08:46:37;;;;;;;;;;;;;;;3.48;74.88;98590.25;4993503;28;19926;-80
2022/12/01 08:49:06;;;;;;;;;;;;;;;3.52;74.82;98588.69;4998755;28;19933;-80
2022/12/01 08:51:35;;;;;;;;;;;;;;;3.55;74.85;98590.88;4982589;28;19932;-80
2022/12/01 08:56:56;;;;;;;;;;;;;;;3.62;74.27;98588.00;5005682;28;20367;-80
2022/12/01 08:59:25;;;;;;;;;;;;;;;3.70;73.94;98589.44;5022056;28;19933;-80
2022/12/01 09:01:53;;;;;;;;;;;;;;;3.68;73.30;98598.56;5028230;28;19925;-80
2022/12/01 09:04:22;;;;;;;;;;;;;;;3.77;73.21;98603.50;5028150;28;19960;-78
2022/12/01 09:06:51;;;;;;;;;;;;;;;3.78;73.00;98597.91;5022992;28;20284;-81
2022/12/01 09:12:15;;;;;;;;;;;;;;;3.96;72.72;98604.00;5014990;28;20012;-80
2022/12/01 09:14:46;;;;;;;;;;;;;;;3.98;72.27;98607.25;5001255;28;19948;-80
2022/12/01 09:17:15;;;;;;;;;;;;;;;4.02;71.04;98603.81;5018689;28;19932;-81
2022/12/01 09:19:44;;;;;;;;;;;;;;;4.09;70.24;98606.28;4993594;28;19953;-80
2022/12/01 09:22:12;;;;;;;;;;;;;;;4.08;70.89;98607.38;5012489;28;19936;-80
2022/12/01 09:24:41;;;;;;;;;;;;;;;4.10;70.82;98611.44;4995280;28;19944;-80
2022/12/01 09:27:10;;;;;;;;;;;;;;;4.00;70.15;98610.50;5014303;28;20251;-81
2022/12/01 09:32:30;;;;;;;;;;;;;;;4.05;70.58;98606.00;5013112;28;19929;-80
2022/12/01 09:34:58;;;;;;;;;;;;;;;4.14;70.83;98600.97;5004315;28;20332;-80
2022/12/01 09:37:26;;;;;;;;;;;;;;;4.15;70.01;98608.78;4985018;28;20406;-80
2022/12/01 09:39:56;;;;;;;;;;;;;;;4.16;70.40;98610.44;5008999;28;20003;-80
2022/12/01 09:42:26;;;;;;;;;;;;;;;4.20;70.89;98602.66;5010523;28;19935;-80
2022/12/01 09:45:01;;;;;;;;;;;;;;;4.22;70.30;98603.22;4985732;28;19947;-80
2022/12/01 09:47:31;;;;;;;;;;;;;;;4.25;70.04;98608.09;5012611;28;20072;-79
2022/12/01 09:50:01;;;;;;;;;;;;;;;4.36;69.64;98600.94;5012886;28;19940;-79
2022/12/01 09:52:29;;;;;;;;;;;;;;;4.39;69.58;98600.44;5019640;28;19925;-80
2022/12/01 09:54:59;;;;;;;;;;;;;;;4.40;69.59;98600.16;5005074;28;19926;-80
2022/12/01 09:57:30;;;;;;;;;;;;;;;4.46;69.40;98595.66;5007711;28;19929;-80
2022/12/01 10:00:02;;;;;;;;;;;;;;;4.57;69.74;98597.38;5006087;28;19926;-80
2022/12/01 10:02:39;;;;;;;;;;;;;;;4.60;69.23;98599.56;5007947;28;19932;-80
2022/12/01 10:05:13;;;;;;;;;;;;;;;4.61;69.02;98590.41;4991659;28;19965;-80
2022/12/01 10:07:44;;;;;;;;;;;;;;;4.65;68.94;98585.34;5012054;28;19929;-80
2022/12/01 10:10:40;;;;;;;;;;;;;;;4.70;68.52;98588.88;5010208;28;20064;-80
2022/12/01 10:13:08;;;;;;;;;;;;;;;4.67;68.36;98581.31;4995619;28;19933;-79
2022/12/01 10:15:39;;;;;;;;;;;;;;;4.68;68.47;98580.25;5010904;28;19929;-80
2022/12/01 10:18:14;;;;;;;;;;;;;;;4.69;68.21;98568.44;4992673;28;19925;-79
2022/12/01 10:20:44;;;;;;;;;;;;;;;4.73;68.03;98566.81;4996897;28;19983;-81
2022/12/01 10:23:18;;;;;;;;;;;;;;;4.77;67.66;98569.00;5016366;28;19995;-79
2022/12/01 10:31:41;;;;;;;;;;;;;;;4.59;68.30;98560.25;5010367;28;19992;-81
2022/12/01 10:34:14;;;;;;;;;;;;;;;4.59;68.36;98554.88;5023477;28;19925;-81
2022/12/01 10:36:42;;;;;;;;;;;;;;;4.56;68.60;98544.63;5009203;28;20339;-79
2022/12/01 10:39:14;;;;;;;;;;;;;;;4.66;68.59;98544.72;5000013;28;19929;-82
2022/12/01 10:41:44;;;;;;;;;;;;;;;4.79;68.12;98548.03;5012508;28;20449;-82
2022/12/01 10:44:14;;;;;;;;;;;;;;;4.90;68.17;98544.34;5017417;28;19980;-81
2022/12/01 10:46:45;;;;;;;;;;;;;;;4.91;67.86;98540.59;5012929;28;20345;-81
2022/12/01 10:49:13;;;;;;;;;;;;;;;5.02;68.16;98542.28;5014595;28;19961;-81
2022/12/01 10:51:49;;;;;;;;;;;;;;;5.04;67.72;98545.50;4996310;28;19940;-81
2022/12/01 10:54:20;;;;;;;;;;;;;;;5.07;67.73;98536.13;5006770;28;19937;-81
2022/12/01 10:56:51;;;;;;;;;;;;;;;5.15;67.28;98536.41;4995463;28;19976;-81
2022/12/01 10:59:22;;;;;;;;;;;;;;;5.29;66.83;98530.59;5012185;28;19932;-81
2022/12/01 11:01:50;;;;;;;;;;;;;;;5.35;66.63;98533.03;4996272;28;19926;-81
2022/12/01 11:04:25;;;;;;;;;;;;;;;5.46;66.28;98533.88;5013965;28;19925;-81
2022/12/01 11:06:53;;;;;;;;;;;;;;;5.54;65.81;98536.09;5012288;28;19960;-81
2022/12/01 11:09:23;;;;;;;;;;;;;;;5.55;65.37;98535.03;5006769;28;19932;-80
2022/12/01 11:11:56;;;;;;;;;;;;;;;5.59;66.31;98533.41;5014458;28;20402;-80
2022/12/01 11:14:25;;;;;;;;;;;;;;;5.64;66.25;98533.41;5013514;28;19937;-80
2022/12/01 11:16:54;;;;;;;;;;;;;;;5.65;65.87;98523.47;5003084;28;20375;-80
2022/12/01 11:19:28;;;;;;;;;;;;;;;5.66;65.48;98533.97;5004356;28;20371;-79
2022/12/01 11:21:57;;;;;;;;;;;;;;;5.53;64.96;98526.38;5013892;28;19975;-80
2022/12/01 11:24:29;;;;;;;;;;;;;;;5.55;65.62;98520.75;5031181;28;19925;-80
2022/12/01 11:26:59;;;;;;;;;;;;;;;5.59;65.55;98521.81;5013887;28;19995;-80
2022/12/01 11:29:29;;;;;;;;;;;;;;;5.62;65.35;98521.28;4992586;28;20414;-80
2022/12/01 11:31:57;;;;;;;;;;;;;;;5.62;65.92;98507.81;5009068;28;19926;-80
2022/12/01 11:34:27;;;;;;;;;;;;;;;5.64;66.04;98511.03;4995086;28;19971;-80
2022/12/01 11:37:22;;;;;;;;;;;;;;;5.69;66.34;98519.97;5007795;28;20035;-80
2022/12/01 11:39:50;;;;;;;;;;;;;;;5.74;66.56;98508.38;4994838;28;20383;-80
2022/12/01 11:42:22;;;;;;;;;;;;;;;5.85;66.09;98507.34;5013670;28;19926;-80
2022/12/01 11:44:54;;;;;;;;;;;;;;;5.99;65.48;98511.19;4996504;28;19993;-80
2022/12/01 11:47:22;;;;;;;;;;;;;;;6.05;64.93;98514.69;5000209;28;19930;-80
2022/12/01 11:49:55;;;;;;;;;;;;;;;6.10;64.51;98514.72;5016860;28;19925;-80
2022/12/01 11:52:26;;;;;;;;;;;;;;;6.09;63.52;98510.41;5026228;28;19960;-80
2022/12/01 11:54:55;;;;;;;;;;;;;;;6.04;63.68;98507.69;5027596;28;20429;-80
2022/12/01 11:57:24;;;;;;;;;;;;;;;6.09;64.45;98504.19;5026599;28;19933;-79
2022/12/01 12:00:04;;;;;;;;;;;;;;;6.17;63.85;98507.16;5015729;28;19926;-79
2022/12/01 12:02:36;;;;;;;;;;;;;;;6.29;63.67;98496.13;5012199;28;19949;-79
2022/12/01 12:05:30;;;;;;;;;;;;;;;6.37;63.11;98495.59;5014955;28;19976;-79
2022/12/01 12:08:00;;;;;;;;;;;;;;;6.41;62.35;98495.88;4991910;28;19930;-80
2022/12/01 12:10:31;;;;;;;;;;;;;;;6.42;62.35;98500.97;4987061;28;19925;-79
2022/12/01 12:13:04;;;;;;;;;;;;;;;6.47;61.69;98502.88;4998832;28;19926;-81
2022/12/01 12:15:35;;;;;;;;;;;;;;;6.50;61.49;98497.75;5021772;28;20089;-81
2022/12/01 12:18:11;;;;;;;;;;;;;;;6.52;62.52;98500.19;5015205;28;19933;-80
2022/12/01 12:20:42;;;;;;;;;;;;;;;6.56;62.93;98495.88;5011422;28;20275;-82
2022/12/01 12:23:17;;;;;;;;;;;;;;;6.49;61.99;98496.13;5039192;28;20269;-80
2022/12/01 12:25:53;;;;;;;;;;;;;;;6.50;61.71;98492.34;5005430;28;19976;-81
2022/12/01 12:28:28;;;;;;;;;;;;;;;6.47;61.87;98486.69;4999510;28;19949;-79
2022/12/01 12:30:57;;;;;;;;;;;;;;;6.44;61.45;98482.63;5023403;28;19984;-81
2022/12/01 12:33:33;;;;;;;;;;;;;;;6.41;61.95;98477.78;5012926;28;20044;-81
2022/12/01 12:36:04;;;;;;;;;;;;;;;6.35;61.31;98478.06;5008001;28;19935;-81
2022/12/01 12:38:38;;;;;;;;;;;;;;;6.39;61.75;98481.81;5027271;28;20450;-82
2022/12/01 12:41:11;;;;;;;;;;;;;;;6.42;60.54;98475.88;5003380;28;19964;-81
2022/12/01 12:43:42;;;;;;;;;;;;;;;6.33;60.80;98475.59;5029988;28;19925;-80
2022/12/01 12:46:13;;;;;;;;;;;;;;;6.40;61.28;98473.47;5020378;28;19926;-82
2022/12/01 12:49:06;;;;;;;;;;;;;;;6.43;61.34;98472.09;5006854;28;20006;-81
2022/12/01 12:51:51;;;;;;;;;;;;;;;6.52;60.89;98473.19;5019873;28;19925;-82
2022/12/01 12:54:21;;;;;;;;;;;;;;;6.51;61.23;98468.88;5022427;28;19925;-82
2022/12/01 12:56:51;;;;;;;;;;;;;;;6.45;60.98;98470.75;5025538;28;20359;-82
2022/12/01 12:59:22;;;;;;;;;;;;;;;6.45;61.15;98469.97;5008272;28;20024;-81
2022/12/01 13:01:54;;;;;;;;;;;;;;;6.46;62.37;98472.38;5018592;28;19997;-82
2022/12/01 13:04:23;;;;;;;;;;;;;;;6.47;61.69;98465.09;5025953;28;19925;-81
2022/12/01 13:06:56;;;;;;;;;;;;;;;6.53;61.10;98470.22;5023889;28;20383;-82
2022/12/01 13:09:27;;;;;;;;;;;;;;;6.49;61.59;98471.00;5011048;28;20379;-82
2022/12/01 13:11:55;;;;;;;;;;;;;;;6.49;61.13;98473.72;5023199;28;19935;-82
2022/12/01 13:14:27;;;;;;;;;;;;;;;6.50;60.97;98469.97;5022868;28;20397;-82
2022/12/01 13:16:56;;;;;;;;;;;;;;;6.43;61.17;98461.31;5019229;28;19925;-82
2022/12/01 13:19:29;;;;;;;;;;;;;;;6.43;61.51;98453.22;5033038;28;19916;-81
2022/12/01 13:21:58;;;;;;;;;;;;;;;6.33;61.04;98458.59;5035089;28;19925;-81
2022/12/01 13:24:28;;;;;;;;;;;;;;;6.32;61.20;98451.59;5025307;28;20348;-81
2022/12/01 13:26:57;;;;;;;;;;;;;;;6.26;61.26;98458.88;5019335;28;19929;-82
2022/12/01 13:29:33;;;;;;;;;;;;;;;6.23;62.49;98460.25;5019686;28;19925;-83
2022/12/01 13:32:30;;;;;;;;;;;;;;;6.26;63.39;98456.19;5030409;28;20002;-83
2022/12/01 13:34:58;;;;;;;;;;;;;;;6.27;62.57;98458.59;5012782;28;19925;-83
2022/12/01 13:37:27;;;;;;;;;;;;;;;6.31;62.84;98461.59;5020787;28;19940;-83
2022/12/01 13:39:55;;;;;;;;;;;;;;;6.35;62.27;98461.88;5042157;28;19964;-82
2022/12/01 13:42:24;;;;;;;;;;;;;;;6.44;62.21;98460.22;5055114;28;19925;-82
2022/12/01 13:44:56;;;;;;;;;;;;;;;6.45;62.31;98451.06;5038730;28;19925;-83
2022/12/01 13:47:31;;;;;;;;;;;;;;;6.44;61.72;98449.41;5011108;28;19926;-83
2022/12/01 13:50:17;;;;;;;;;;;;;;;6.39;61.65;98452.13;5005795;28;19926;-82
2022/12/01 13:52:49;;;;;;;;;;;;;;;6.41;61.88;98449.97;5007971;28;19940;-83
2022/12/01 13:55:23;;;;;;;;;;;;;;;6.44;62.10;98449.41;5009097;28;20001;-83